Station: Strathalbyn

  Atmospheric Gas Attenuation - ITU Rec 676-11   --------------- db/100km ---------------
Date Time Temp RH % AH g/m3 Dew Point Wind Direction Speed kph Gust kph Barometer mB Rainfall Since 9am 24GHz 47GHz 76GHz 122GHz 134GHz 241GHz
16 19:10 16.8 61 8.72 9.2 24 30 1019.8 0 19.7 25.5 39.1 102.5 96.7 333.0
16 19:00 16.9 63 9.06 9.8 24 33 1019.6 0 20.4 26.0 40.3 105.9 101.0 347.8
16 18:50 17 61 8.83 9.4 26 30 1019.6 0 19.9 25.6 39.4 103.3 97.9 337.0
16 18:40 17.2 59 8.64 9.1 26 32 1019.5 0 19.5 25.2 38.6 101.1 95.2 327.7
16 18:30 17.3 59 8.69 9.2 28 35 1019.4 0 19.6 25.3 38.7 101.5 95.7 329.5
16 18:19 17.2 58 8.49 8.9 32 33 1019.3 0 19.2 25.0 38.0 99.5 93.3 321.0
16 18:10 17.4 58 8.6 9.1 26 32 1019.3 0 19.4 25.1 38.3 100.4 94.4 325.0
16 18:00 18.1 55 8.5 8.9 30 37 1019.3 0 19.2 24.7 37.6 98.5 92.4 317.8
16 17:50 17.7 55 8.3 8.6 32 37 1019.3 0 18.8 24.5 37.0 97.0 90.3 310.7
16 17:40 17.5 56 8.35 8.6 26 28 1019.4 0 18.9 24.7 37.3 97.8 91.2 313.7
16 17:30 18.4 55 8.65 9.2 28 39 1019.5 0 19.5 24.9 38.0 99.7 93.9 323.2
16 17:20 17.4 58 8.6 9.1 28 32 1019.5 0 19.4 25.1 38.3 100.4 94.5 325.1
16 17:10 17.3 58 8.54 9 32 33 1019.5 0 19.3 25.0 38.1 100.0 93.8 322.8
16 17:00 17.6 56 8.4 8.7 30 37 1019.5 0 19.0 24.7 37.5 98.2 91.7 315.5
16 16:50 18 56 8.6 9.1 32 39 1019.5 0 19.4 24.9 38.0 99.7 93.7 322.6
16 16:40 17.9 56 8.55 9 26 32 1019.7 0 19.3 24.9 37.9 99.3 93.2 320.9
16 16:30 17.6 55 8.25 8.5 28 35 1019.7 0 18.7 24.5 36.9 96.7 89.9 309.0
16 16:20 17.4 56 8.3 8.5 30 33 1019.9 0 18.8 24.7 37.2 97.4 90.7 312.0
16 16:10 17.4 56 8.3 8.5 28 32 1019.9 0 18.8 24.7 37.2 97.4 90.7 312.0
16 16:00 17.1 58 8.44 8.8 26 37 1020.1 0 19.1 25.0 37.9 99.2 92.8 319.4
16 15:50 18 55 8.45 8.8 32 35 1020.1 0 19.1 24.7 37.5 98.2 91.9 316.2
16 15:40 18.8 50 8.05 8.2 24 28 1020.3 0 18.2 23.9 35.6 93.3 86.1 296.0
16 15:30 19.2 49 8.08 8.2 28 37 1020.3 0 18.2 23.9 35.6 93.1 86.0 295.8
16 15:20 18.6 48 7.64 7.4 28 32 1020.4 0 17.3 23.4 34.2 89.5 81.4 279.4
16 15:10 19 51 8.31 8.6 22 26 1020.5 0 18.7 24.3 36.5 95.7 89.1 306.4
16 15:00 18.3 50 7.82 7.7 28 33 1020.5 0 17.7 23.7 35.0 91.6 83.9 288.1
16 14:50 19 47 7.66 7.4 33 37 1020.4 0 17.4 23.3 34.1 89.3 81.2 278.8
16 14:40 19.8 45 7.69 7.5 22 28 1020.5 0 17.4 23.1 33.9 88.7 80.8 277.3
16 14:30 18.7 46 7.36 6.9 26 41 1020.4 0 16.7 22.9 33.2 86.7 77.9 267.3
16 14:20 19.7 45 7.64 7.4 28 32 1020.5 0 17.3 23.1 33.8 88.3 80.3 275.6
16 14:10 18.6 47 7.48 7.1 30 35 1020.5 0 17.0 23.1 33.6 88.0 79.5 272.7
16 14:00 19.7 46 7.81 7.8 32 43 1020.6 0 17.6 23.3 34.4 90.0 82.3 282.7
16 13:50 19 48 7.82 7.8 33 37 1020.5 0 17.7 23.5 34.7 90.8 83.1 285.6
16 13:40 18.2 50 7.77 7.6 30 37 1020.6 0 17.6 23.7 34.9 91.3 83.4 286.3
16 13:30 19 44 7.17 6.5 26 37 1020.5 0 16.3 22.6 32.4 84.6 75.4 258.5
16 13:20 18.8 46 7.41 6.9 19 24 1020.7 0 16.8 23.0 33.3 87.1 78.4 269.1
16 13:10 18.3 46 7.19 6.5 19 26 1020.8 0 16.4 22.8 32.7 85.5 76.3 261.6
16 13:00 18 47 7.22 6.5 24 33 1020.9 0 16.5 22.9 33.0 86.1 77.0 263.9
16 12:50 18 48 7.37 6.8 28 32 1021 0 16.8 23.1 33.5 87.6 78.8 270.2
16 12:40 17.5 50 7.45 7 26 32 1021 0 17.0 23.4 34.0 88.9 80.2 275.3
16 12:30 17.2 54 7.91 7.8 22 28 1021.1 0 18.0 24.2 35.9 93.8 86.2 296.1
16 12:20 16.7 56 7.96 7.9 26 30 1021.2 0 18.1 24.4 36.3 95.0 87.4 300.1
16 12:10 16.7 57 8.1 8.1 28 32 1021.1 0 18.4 24.6 36.8 96.4 89.1 306.2
16 12:00 17.1 51 7.42 6.9 30 39 1021.1 0 16.9 23.4 34.1 89.1 80.3 275.4
16 11:50 17.9 45 6.87 5.8 28 32 1021 0 15.7 22.4 31.8 82.9 72.9 249.7
16 11:40 18.9 43 6.97 6.1 26 32 1020.9 0 15.9 22.3 31.7 82.8 73.2 250.7
16 11:30 17.9 44 6.72 5.5 26 35 1021 0 15.4 22.2 31.2 81.5 71.2 243.5
16 11:20 17.9 45 6.87 5.8 26 32 1021 0 15.7 22.4 31.8 82.9 72.9 249.7
16 11:10 17.4 46 6.82 5.7 32 37 1020.9 0 15.7 22.5 31.8 82.9 72.8 249.1
16 11:00 17.5 46 6.86 5.8 22 33 1020.9 0 15.7 22.5 31.9 83.2 73.2 250.5
16 10:50 16.7 49 6.96 5.9 20 24 1021 0 16.0 22.9 32.5 85.0 75.1 257.2
16 10:40 17.4 46 6.82 5.7 32 35 1020.8 0 15.7 22.5 31.8 82.9 72.8 249.1
16 10:30 19.2 43 7.09 6.3 26 35 1020.7 0 16.1 22.4 32.0 83.6 74.3 254.6
16 10:20 17.9 44 6.72 5.5 28 33 1020.6 0 15.4 22.2 31.2 81.4 71.1 243.4
16 10:10 16.7 45 6.39 4.7 19 22 1020.7 0 14.8 22.0 30.5 79.5 68.3 233.4
16 10:00 18.5 44 6.96 6 24 33 1020.8 0 15.9 22.4 31.8 83.1 73.4 251.5
16 09:50 17.6 47 7.05 6.2 22 33 1020.8 0 16.1 22.8 32.5 84.9 75.3 258.0
16 09:40 17.2 47 6.88 5.8 24 28 1020.8 0 15.8 22.6 32.1 83.7 73.7 252.2
16 09:30 17.3 45 6.63 5.3 22 32 1020.8 0 15.3 22.2 31.1 81.2 70.6 241.5
16 09:20 16.9 44 6.33 4.6 20 22 1020.8 0 14.6 21.9 30.2 78.7 67.5 230.3
16 09:10 16.3 46 6.38 4.7 22 26 1020.8 0 14.8 22.1 30.6 79.8 68.6 234.1
16 09:00 16.2 48 6.62 5.2 24 32 1020.7 0 15.3 22.5 31.5 82.2 71.5 244.4
16 08:50 15.6 48 6.38 4.6 22 26 1020.8 0 14.8 22.3 30.9 80.5 69.2 236.1
16 08:40 15.6 48 6.38 4.6 28 30 1020.7 0 14.8 22.3 30.9 80.5 69.2 236.1
16 08:30 15.7 48 6.42 4.7 24 33 1020.7 0 14.9 22.3 31.0 80.8 69.5 237.5
16 08:20 15.5 50 6.61 5.1 30 32 1020.6 0 15.3 22.6 31.7 82.8 72.0 246.1
16 08:10 15.3 51 6.66 5.2 22 26 1020.6 0 15.4 22.8 32.0 83.5 72.8 248.8
16 08:00 15.1 52 6.71 5.3 24 32 1020.5 0 15.5 22.9 32.3 84.2 73.6 251.5
16 07:50 15.2 53 6.88 5.7 24 28 1020.4 0 15.9 23.1 32.8 85.8 75.5 258.4
16 07:40 15.1 54 6.97 5.9 26 30 1020.2 0 16.1 23.2 33.2 86.7 76.7 262.6
16 07:30 15 55 7.05 6 17 22 1020.1 0 16.2 23.4 33.5 87.6 77.8 266.3
16 07:20 14.8 55 6.97 5.9 15 19 1020 0 16.1 23.3 33.3 87.1 77.0 263.5
16 07:10 14.7 56 7.05 6 15 17 1019.9 0 16.2 23.5 33.7 88.0 78.1 267.3
16 07:00 14.5 56 6.97 5.8 13 15 1019.9 0 16.1 23.4 33.4 87.4 77.3 264.5
16 06:50 14.5 57 7.09 6.1 13 13 1019.7 0 16.3 23.6 33.9 88.6 78.7 269.7
16 06:40 14.5 57 7.09 6.1 13 15 1019.7 0 16.3 23.6 33.9 88.6 78.7 269.7
16 06:30 14.4 58 7.17 6.3 15 20 1019.6 0 16.5 23.7 34.2 89.5 79.8 273.5
16 06:20 14.3 59 7.25 6.4 17 20 1019.4 0 16.7 23.9 34.6 90.4 80.9 277.3
16 06:10 14.3 59 7.25 6.4 19 20 1019.4 0 16.7 23.9 34.6 90.4 80.9 277.3
16 06:00 14.3 59 7.25 6.4 20 28 1019.2 0 16.7 23.8 34.5 90.3 80.9 277.2
16 05:50 14.4 56 6.92 5.7 26 28 1018.9 0 16.0 23.3 33.2 86.9 76.7 262.4
16 05:40 14.4 56 6.92 5.7 17 20 1019 0 16.0 23.3 33.3 86.9 76.7 262.4
16 05:30 14.5 56 6.97 5.8 20 28 1018.7 0 16.1 23.3 33.4 87.3 77.2 264.2
16 05:20 14.4 56 6.92 5.7 19 20 1018.7 0 16.0 23.3 33.2 86.9 76.7 262.4
16 05:10 14.4 58 7.17 6.3 15 17 1018.6 0 16.5 23.7 34.2 89.4 79.8 273.2
16 04:50 14.3 59 7.25 6.4 22 24 1018.5 0 16.7 23.8 34.5 90.3 80.9 277.1
16 04:40 14.3 59 7.25 6.4 26 30 1018.4 0 16.7 23.8 34.5 90.3 80.9 277.0
16 04:30 14.3 59 7.25 6.4 19 26 1018.3 0 16.7 23.8 34.5 90.3 80.8 277.0
16 04:20 14.2 60 7.33 6.6 20 24 1018.4 0 16.9 24.0 34.9 91.2 82.0 280.9
16 04:10 14.4 59 7.29 6.5 24 26 1018.4 0 16.8 23.9 34.6 90.6 81.3 278.4
16 04:00 14.4 57 7.05 6 24 30 1018.2 0 16.3 23.5 33.7 88.1 78.2 267.9
16 03:50 14.5 55 6.84 5.6 22 28 1018.4 0 15.8 23.1 32.9 85.9 75.6 258.5
16 03:40 14.6 50 6.26 4.3 22 28 1018.3 0 14.6 22.3 30.7 80.1 68.4 233.5
16 03:30 14.6 51 6.38 4.6 24 30 1018.2 0 14.8 22.4 31.1 81.3 69.9 238.5
16 03:20 14.5 56 6.97 5.8 20 26 1018.4 0 16.1 23.3 33.4 87.2 77.2 264.2
16 03:10 14.4 59 7.29 6.5 17 20 1018.6 0 16.8 23.9 34.6 90.6 81.3 278.5
16 03:00 14.6 50 6.26 4.3 20 30 1018.5 0 14.6 22.3 30.7 80.1 68.4 233.5
16 02:50 14.6 47 5.88 3.4 19 20 1018.6 0 13.8 21.7 29.4 76.5 63.9 217.7
16 02:40 14.6 48 6.01 3.7 19 20 1018.7 0 14.0 21.9 29.8 77.7 65.5 223.1
16 02:30 14.7 50 6.3 4.4 24 32 1018.7 0 14.7 22.3 30.8 80.4 68.9 235.0

Last Refresh: 16-Jan-2021 19:22:05

Most of the information presented on this site is sourced from the Bureau of Meteorology.  Copyright in all material sourced from the Bureau of Meteorology resides with the Commonwealth of Australia.